createdAt,value
2023-04-05T00:00:42.927Z,93.35
2023-04-05T00:05:45.904Z,93.45
2023-04-05T00:10:47.373Z,93.71
2023-04-05T00:15:49.913Z,93.72
2023-04-05T00:20:51.851Z,94.79
2023-04-05T00:25:53.393Z,94.84
2023-04-05T00:30:54.976Z,94.69
2023-04-05T00:35:56.478Z,95.27
2023-04-05T00:40:57.982Z,95.93
2023-04-05T00:46:00.265Z,95.91
2023-04-05T00:51:02.639Z,96.56
2023-04-05T00:56:04.451Z,96.73
2023-04-05T01:01:20.537Z,97.04
2023-04-05T01:06:27.947Z,97.82
2023-04-05T01:11:32.377Z,97.63
2023-04-05T01:16:33.896Z,98.65
2023-04-05T01:21:38.027Z,98.56
2023-04-05T01:27:06.958Z,99.26
2023-04-05T01:32:17.616Z,99.16
2023-04-05T01:37:22.772Z,99.77
2023-04-05T01:42:25.943Z,100.00
2023-04-05T01:47:27.503Z,100.00
2023-04-05T01:52:29.036Z,100.00
2023-04-05T01:57:30.608Z,100.00
2023-04-05T02:02:32.136Z,100.00
2023-04-05T02:07:33.641Z,100.00
2023-04-05T02:12:35.287Z,100.00
2023-04-05T02:17:39.979Z,100.00
2023-04-05T02:22:45.439Z,100.00
2023-04-05T02:27:47.796Z,100.00
2023-04-05T02:32:49.389Z,100.00
2023-04-05T02:37:50.974Z,100.00
2023-04-05T02:42:52.470Z,100.00
2023-04-05T02:47:55.231Z,100.00
2023-04-05T02:52:56.897Z,100.00
2023-04-05T02:58:00.843Z,100.00
2023-04-05T03:03:02.394Z,100.00
2023-04-05T03:08:04.119Z,100.00
2023-04-05T03:13:05.679Z,100.00
2023-04-05T03:18:07.235Z,100.00
2023-04-05T03:23:09.449Z,100.00
2023-04-05T03:28:10.932Z,100.00
2023-04-05T03:33:12.533Z,100.00
2023-04-05T03:38:14.571Z,100.00
2023-04-05T03:43:16.807Z,100.00
2023-04-05T03:48:20.312Z,100.00
2023-04-05T03:53:21.869Z,100.00
2023-04-05T03:58:23.410Z,100.00
2023-04-05T04:03:26.094Z,100.00
2023-04-05T04:08:27.616Z,100.00
2023-04-05T04:13:29.227Z,100.00
2023-04-05T04:18:30.778Z,100.00
2023-04-05T04:23:34.421Z,100.00
2023-04-05T04:28:38.747Z,100.00
2023-04-05T04:33:40.321Z,100.00
2023-04-05T04:38:42.934Z,100.00
2023-04-05T04:43:44.678Z,100.00
2023-04-05T04:48:47.263Z,100.00
2023-04-05T04:53:48.804Z,100.00
2023-04-05T04:58:50.404Z,100.00
2023-04-05T05:03:52.257Z,100.00
2023-04-05T05:08:54.442Z,100.00
2023-04-05T05:13:55.974Z,100.00
2023-04-05T05:18:57.518Z,100.00
2023-04-05T05:23:58.985Z,100.00
2023-04-05T05:29:02.157Z,99.27
2023-04-05T05:34:03.679Z,99.15
2023-04-05T05:39:05.939Z,99.26
2023-04-05T05:44:07.408Z,99.23
2023-04-05T05:49:09.079Z,100.00
2023-04-05T05:54:10.638Z,99.88
2023-04-05T05:59:13.418Z,100.00
2023-04-05T06:04:15.148Z,100.00
2023-04-05T06:09:16.929Z,100.00
2023-04-05T06:14:18.753Z,99.86
2023-04-05T06:19:20.495Z,99.54
2023-04-05T06:24:21.999Z,99.13
2023-04-05T06:29:23.592Z,99.21
2023-04-05T06:34:25.101Z,99.18
2023-04-05T06:39:26.589Z,99.63
2023-04-05T06:44:28.084Z,98.56
2023-04-05T06:49:29.544Z,99.81
2023-04-05T06:54:31.226Z,99.68
2023-04-05T06:59:33.121Z,97.96
2023-04-05T07:04:36.931Z,96.19
2023-04-05T07:09:39.915Z,93.64
2023-04-05T07:14:41.477Z,93.85
2023-04-05T07:19:43.309Z,92.29
2023-04-05T07:24:46.139Z,91.24
2023-04-05T07:29:48.365Z,90.21
2023-04-05T07:34:49.876Z,89.46
2023-04-05T07:39:51.564Z,88.46
2023-04-05T07:44:53.141Z,87.05
2023-04-05T07:49:54.892Z,86.28
2023-04-05T07:54:56.788Z,84.90
2023-04-05T07:59:58.343Z,85.24
2023-04-05T08:05:00.003Z,84.91
2023-04-05T08:10:01.682Z,83.86
2023-04-05T08:15:03.836Z,83.71
2023-04-05T08:20:06.038Z,82.48
2023-04-05T08:25:08.353Z,82.43
2023-04-05T08:30:10.626Z,82.81
2023-04-05T08:35:14.807Z,81.37
2023-04-05T08:40:16.427Z,81.35
2023-04-05T08:45:19.412Z,80.44
2023-04-05T08:50:21.937Z,81.19
2023-04-05T08:55:24.821Z,79.54
2023-04-05T09:00:27.794Z,78.06
2023-04-05T09:05:30.836Z,78.01
2023-04-05T09:10:32.673Z,78.00
2023-04-05T09:15:36.292Z,76.08
2023-04-05T09:20:38.222Z,75.37
2023-04-05T09:25:42.486Z,75.69
2023-04-05T09:30:47.753Z,74.26
2023-04-05T09:35:51.255Z,73.12
2023-04-05T09:40:52.796Z,72.47
2023-04-05T09:45:54.363Z,71.71
2023-04-05T09:51:12.546Z,71.14
2023-04-05T09:56:14.979Z,71.46
2023-04-05T10:01:17.469Z,70.53
2023-04-05T10:06:19.403Z,69.97
2023-04-05T10:11:21.807Z,67.57
2023-04-05T10:16:28.486Z,65.22
2023-04-05T10:21:33.646Z,65.40
2023-04-05T10:26:49.364Z,66.80
2023-04-05T10:31:59.340Z,67.50
2023-04-05T10:37:02.096Z,65.98
2023-04-05T10:42:27.517Z,65.88
2023-04-05T10:47:32.204Z,65.65
2023-04-05T10:52:34.378Z,64.36
2023-04-05T10:57:37.505Z,64.43
2023-04-05T11:02:39.628Z,62.95
2023-04-05T11:07:45.900Z,62.32
2023-04-05T11:12:47.367Z,61.99
2023-04-05T11:18:05.551Z,60.72
2023-04-05T11:23:07.351Z,58.63
2023-04-05T11:28:09.220Z,59.00
2023-04-05T11:33:10.807Z,59.90
2023-04-05T11:38:22.132Z,59.17
2023-04-05T11:43:30.104Z,58.00
2023-04-05T11:48:31.592Z,58.69
2023-04-05T11:53:33.067Z,57.79
2023-04-05T11:58:34.529Z,58.17
2023-04-05T12:03:37.442Z,56.96
2023-04-05T12:08:49.951Z,57.76
2023-04-05T12:13:59.059Z,58.04
2023-04-05T12:19:00.941Z,57.57
2023-04-05T12:24:02.593Z,57.06
2023-04-05T12:29:04.494Z,57.16
2023-04-05T12:34:06.346Z,57.52
2023-04-05T12:39:09.968Z,56.61
2023-04-05T12:44:15.194Z,57.65
2023-04-05T12:49:17.929Z,57.34
2023-04-05T12:54:23.660Z,56.73
2023-04-05T12:59:25.347Z,55.43
2023-04-05T13:04:26.886Z,56.00
2023-04-05T13:09:28.411Z,55.18
2023-04-05T13:14:30.006Z,53.20
2023-04-05T13:19:31.556Z,53.61
2023-04-05T13:24:33.066Z,54.56
2023-04-05T13:29:34.598Z,54.06
2023-04-05T13:34:36.130Z,54.15
2023-04-05T13:39:37.636Z,54.23
2023-04-05T13:44:39.280Z,55.65
2023-04-05T13:49:41.078Z,55.01
2023-04-05T13:54:42.938Z,55.32
2023-04-05T13:59:44.582Z,54.04
2023-04-05T14:04:46.436Z,53.41
2023-04-05T14:09:48.009Z,53.51
2023-04-05T14:14:49.551Z,54.12
2023-04-05T14:19:51.029Z,54.98
2023-04-05T14:24:52.646Z,55.99
2023-04-05T14:29:57.098Z,56.14
2023-04-05T14:34:58.825Z,55.93
2023-04-05T14:40:00.310Z,55.50
2023-04-05T14:45:01.991Z,55.89
2023-04-05T14:56:19.027Z,54.73
2023-04-05T15:01:20.703Z,54.32
2023-04-05T15:06:22.303Z,56.12
2023-04-05T15:11:23.822Z,56.63
2023-04-05T15:16:25.428Z,57.45
2023-04-05T15:21:27.278Z,56.93
2023-04-05T15:26:28.880Z,56.48
2023-04-05T15:31:33.703Z,57.58
2023-04-05T15:36:36.057Z,57.62
2023-04-05T15:41:37.752Z,56.73
2023-04-05T15:46:39.313Z,56.79
2023-04-05T15:51:40.880Z,57.81
2023-04-05T15:56:42.973Z,58.47
2023-04-05T16:01:44.706Z,58.59
2023-04-05T16:06:46.676Z,57.61
2023-04-05T16:11:48.262Z,57.20
2023-04-05T16:16:53.703Z,56.63
2023-04-05T16:21:55.966Z,57.04
2023-04-05T16:26:58.097Z,57.52
2023-04-05T16:31:59.781Z,58.75
2023-04-05T16:37:01.309Z,59.07
2023-04-05T16:42:02.810Z,59.67
2023-04-05T16:47:04.298Z,58.32
2023-04-05T16:52:06.006Z,57.52
2023-04-05T16:57:07.562Z,58.63
2023-04-05T17:02:09.258Z,59.14
2023-04-05T17:07:10.876Z,59.60
2023-04-05T17:12:12.548Z,60.12
2023-04-05T17:17:14.026Z,60.00
2023-04-05T17:22:15.664Z,59.98
2023-04-05T17:27:17.138Z,60.64
2023-04-05T17:32:18.695Z,61.28
2023-04-05T17:37:20.404Z,62.26
2023-04-05T17:42:21.885Z,62.69
2023-04-05T17:47:23.468Z,64.45
2023-04-05T17:52:24.995Z,65.64
2023-04-05T17:57:26.563Z,66.25
2023-04-05T18:02:28.429Z,67.08
2023-04-05T18:07:30.484Z,67.26
2023-04-05T18:12:33.080Z,67.48
2023-04-05T18:17:34.655Z,68.41
2023-04-05T18:22:36.332Z,69.94
2023-04-05T18:27:39.006Z,70.74
2023-04-05T18:32:43.336Z,71.46
2023-04-05T18:37:44.831Z,71.88
2023-04-05T18:42:46.495Z,72.78
2023-04-05T18:47:48.091Z,73.86
2023-04-05T18:52:49.600Z,74.29
2023-04-05T18:57:51.312Z,75.68
2023-04-05T19:02:52.957Z,76.10
2023-04-05T19:07:54.496Z,77.25
2023-04-05T19:12:56.075Z,78.09
2023-04-05T19:17:58.231Z,79.25
2023-04-05T19:22:59.840Z,79.92
2023-04-05T19:28:01.525Z,80.93
2023-04-05T19:33:03.064Z,81.09
2023-04-05T19:38:04.956Z,81.93
2023-04-05T19:43:06.533Z,82.15
2023-04-05T19:48:41.186Z,83.94
2023-04-05T19:53:50.261Z,85.01
2023-04-05T19:59:03.625Z,86.08
2023-04-05T20:04:17.023Z,86.34
2023-04-05T20:09:20.193Z,85.79
2023-04-05T20:14:28.167Z,83.51
2023-04-05T20:19:31.501Z,80.68
2023-04-05T20:24:33.607Z,77.77
2023-04-05T20:29:36.185Z,77.50
2023-04-05T20:34:43.722Z,77.39
2023-04-05T20:39:45.365Z,77.50
2023-04-05T20:44:47.907Z,77.94
2023-04-05T20:49:50.306Z,78.83
2023-04-05T20:54:52.237Z,78.68
2023-04-05T20:59:53.898Z,78.10
2023-04-05T21:04:55.601Z,77.21
2023-04-05T21:09:57.135Z,75.15
2023-04-05T21:15:00.313Z,75.09
2023-04-05T21:20:02.063Z,76.20
2023-04-05T21:25:05.894Z,75.48
2023-04-05T21:30:07.975Z,74.93
2023-04-05T21:35:10.000Z,75.21
2023-04-05T21:40:11.970Z,75.26
2023-04-05T21:45:13.625Z,73.06
2023-04-05T21:50:15.339Z,74.11
2023-04-05T21:55:17.192Z,74.83
2023-04-05T22:00:19.022Z,72.29
2023-04-05T22:05:33.954Z,72.61
2023-04-05T22:10:39.305Z,73.52
2023-04-05T22:15:40.935Z,72.68
2023-04-05T22:20:42.440Z,74.10
2023-04-05T22:25:43.940Z,73.96
2023-04-05T22:30:45.478Z,74.92
2023-04-05T22:35:47.111Z,74.97
2023-04-05T22:40:48.836Z,75.75
2023-04-05T22:45:52.025Z,75.67
2023-04-05T22:50:53.667Z,75.70
2023-04-05T22:55:55.380Z,76.95
2023-04-05T23:00:56.901Z,76.98
2023-04-05T23:05:58.426Z,77.70
2023-04-05T23:10:59.890Z,78.63
2023-04-05T23:16:01.680Z,79.66
2023-04-05T23:21:03.351Z,80.16
2023-04-05T23:26:04.883Z,81.30
2023-04-05T23:31:06.417Z,81.83
2023-04-05T23:36:08.618Z,82.69
2023-04-05T23:41:10.189Z,83.29
2023-04-05T23:46:11.717Z,83.99
2023-04-05T23:51:13.221Z,84.47
2023-04-05T23:56:14.980Z,84.48
